createdAt,value
2022-08-17T00:03:09.887Z,91
2022-08-17T00:08:09.720Z,91
2022-08-17T00:13:09.874Z,92
2022-08-17T00:19:01.719Z,92
2022-08-17T00:23:11.389Z,92
2022-08-17T00:28:10.475Z,92
2022-08-17T00:33:23.147Z,92
2022-08-17T00:38:10.028Z,92
2022-08-17T00:43:10.319Z,92
2022-08-17T00:48:11.561Z,92
2022-08-17T00:53:10.022Z,93
2022-08-17T00:58:10.216Z,93
2022-08-17T01:03:09.742Z,93
2022-08-17T01:08:10.004Z,93
2022-08-17T01:13:10.324Z,93
2022-08-17T01:18:10.389Z,93
2022-08-17T01:23:09.952Z,93
2022-08-17T01:28:09.909Z,93
2022-08-17T01:33:10.069Z,93
2022-08-17T01:38:10.140Z,93
2022-08-17T01:43:10.193Z,94
2022-08-17T01:48:10.236Z,94
2022-08-17T01:53:10.248Z,94
2022-08-17T01:58:10.459Z,94
2022-08-17T02:03:09.764Z,94
2022-08-17T02:08:09.838Z,94
2022-08-17T02:13:09.982Z,94
2022-08-17T02:18:10.078Z,94
2022-08-17T02:23:10.063Z,94
2022-08-17T02:28:10.091Z,94
2022-08-17T02:33:10.210Z,94
2022-08-17T02:38:10.472Z,94
2022-08-17T02:43:09.712Z,95
2022-08-17T02:48:10.023Z,95
2022-08-17T02:53:10.488Z,95
2022-08-17T02:58:09.915Z,95
2022-08-17T03:03:09.663Z,95
2022-08-17T03:08:13.256Z,95
2022-08-17T03:13:09.614Z,95
2022-08-17T03:18:19.367Z,95
2022-08-17T03:23:09.866Z,95
2022-08-17T03:28:10.215Z,95
2022-08-17T03:33:09.709Z,95
2022-08-17T03:38:10.157Z,95
2022-08-17T03:43:10.017Z,95
2022-08-17T03:48:10.367Z,95
2022-08-17T03:53:09.702Z,95
2022-08-17T03:58:09.929Z,95
2022-08-17T04:03:10.277Z,95
2022-08-17T04:08:10.574Z,95
2022-08-17T04:13:09.943Z,95
2022-08-17T04:18:11.027Z,95
2022-08-17T04:23:10.260Z,95
2022-08-17T04:28:16.255Z,95
2022-08-17T04:33:10.099Z,95
2022-08-17T04:38:10.338Z,95
2022-08-17T04:43:10.556Z,95
2022-08-17T04:48:09.665Z,95
2022-08-17T04:53:09.991Z,95
2022-08-17T04:58:10.155Z,95
2022-08-17T05:03:10.434Z,95
2022-08-17T05:08:10.654Z,95
2022-08-17T05:13:10.591Z,95
2022-08-17T05:18:09.837Z,95
2022-08-17T05:23:10.133Z,95
2022-08-17T05:28:10.661Z,95
2022-08-17T05:33:10.208Z,96
2022-08-17T05:38:10.205Z,96
2022-08-17T05:43:10.501Z,96
2022-08-17T05:48:10.580Z,96
2022-08-17T05:53:09.869Z,97
2022-08-17T05:58:10.047Z,97
2022-08-17T06:03:10.257Z,97
2022-08-17T06:08:10.465Z,97
2022-08-17T06:13:10.528Z,97
2022-08-17T06:18:09.777Z,97
2022-08-17T06:23:09.839Z,98
2022-08-17T06:28:09.893Z,98
2022-08-17T06:33:10.193Z,98
2022-08-17T06:38:10.478Z,98
2022-08-17T06:43:10.441Z,98
2022-08-17T06:48:09.955Z,98
2022-08-17T06:53:10.206Z,98
2022-08-17T06:58:15.802Z,98
2022-08-17T07:03:10.552Z,99
2022-08-17T07:08:10.071Z,99
2022-08-17T07:13:10.594Z,99
2022-08-17T07:18:09.865Z,99
2022-08-17T07:23:10.065Z,98
2022-08-17T07:28:10.406Z,98
2022-08-17T07:33:13.394Z,98
2022-08-17T07:38:25.220Z,98
2022-08-17T07:43:12.524Z,98
2022-08-17T07:48:09.920Z,98
2022-08-17T07:53:10.244Z,96
2022-08-17T07:58:10.348Z,96
2022-08-17T08:03:08.983Z,94
2022-08-17T08:08:10.396Z,94
2022-08-17T08:13:12.250Z,91
2022-08-17T08:18:10.764Z,91
2022-08-17T08:23:10.925Z,87
2022-08-17T08:28:10.188Z,87
2022-08-17T08:33:10.189Z,83
2022-08-17T08:38:10.393Z,83
2022-08-17T08:43:10.601Z,80
2022-08-17T08:48:22.992Z,80
2022-08-17T08:53:10.535Z,76
2022-08-17T08:58:32.037Z,76
2022-08-17T09:03:09.900Z,75
2022-08-17T09:08:09.954Z,75
2022-08-17T09:13:10.700Z,68
2022-08-17T09:18:59.243Z,68
2022-08-17T09:23:10.026Z,67
2022-08-17T09:28:10.452Z,67
2022-08-17T09:33:10.657Z,64
2022-08-17T09:38:09.806Z,64
2022-08-17T09:43:10.082Z,64
2022-08-17T09:48:10.233Z,64
2022-08-17T09:53:10.594Z,63
2022-08-17T09:58:10.710Z,63
2022-08-17T10:03:09.971Z,58
2022-08-17T10:08:10.065Z,58
2022-08-17T10:13:10.644Z,58
2022-08-17T10:18:10.643Z,58
2022-08-17T10:23:10.806Z,56
2022-08-17T10:28:19.663Z,56
2022-08-17T10:33:09.947Z,57
2022-08-17T10:38:10.523Z,57
2022-08-17T10:43:10.103Z,56
2022-08-17T10:48:10.465Z,56
2022-08-17T10:53:10.169Z,55
2022-08-17T10:58:10.478Z,55
2022-08-17T11:03:10.886Z,54
2022-08-17T11:08:10.298Z,54
2022-08-17T11:13:10.568Z,53
2022-08-17T11:18:10.701Z,53
2022-08-17T11:23:10.129Z,53
2022-08-17T11:28:10.231Z,53
2022-08-17T11:33:10.543Z,54
2022-08-17T11:38:14.077Z,54
2022-08-17T11:43:09.884Z,56
2022-08-17T11:48:27.121Z,56
2022-08-17T11:53:10.480Z,55
2022-08-17T11:58:10.652Z,55
2022-08-17T12:03:10.096Z,56
2022-08-17T12:08:10.338Z,56
2022-08-17T12:13:10.731Z,56
2022-08-17T12:18:10.122Z,56
2022-08-17T12:23:10.268Z,54
2022-08-17T12:28:10.831Z,54
2022-08-17T12:33:10.504Z,54
2022-08-17T12:38:26.932Z,54
2022-08-17T12:43:10.785Z,52
2022-08-17T12:48:09.918Z,52
2022-08-17T12:53:10.072Z,51
2022-08-17T12:58:14.080Z,51
2022-08-17T13:03:12.881Z,51
2022-08-17T13:08:10.129Z,51
2022-08-17T13:13:11.010Z,52
2022-08-17T13:18:10.151Z,52
2022-08-17T13:23:12.454Z,51
2022-08-17T13:28:10.786Z,51
2022-08-17T13:33:10.138Z,49
2022-08-17T13:38:10.119Z,49
2022-08-17T13:43:10.155Z,48
2022-08-17T13:48:14.101Z,48
2022-08-17T13:53:10.452Z,50
2022-08-17T13:58:10.174Z,50
2022-08-17T14:03:10.825Z,48
2022-08-17T14:08:10.894Z,48
2022-08-17T14:13:10.065Z,48
2022-08-17T14:18:10.262Z,48
2022-08-17T14:23:10.427Z,48
2022-08-17T14:28:10.557Z,48
2022-08-17T14:33:10.024Z,49
2022-08-17T14:38:10.852Z,49
2022-08-17T14:43:10.451Z,51
2022-08-17T14:48:10.787Z,51
2022-08-17T14:53:10.140Z,52
2022-08-17T14:58:10.231Z,52
2022-08-17T15:03:10.943Z,53
2022-08-17T15:08:10.761Z,53
2022-08-17T15:13:10.420Z,56
2022-08-17T15:18:10.623Z,56
2022-08-17T15:23:10.608Z,58
2022-08-17T15:28:10.054Z,58
2022-08-17T15:33:10.173Z,59
2022-08-17T15:38:12.043Z,59
2022-08-17T15:43:10.105Z,61
2022-08-17T15:48:10.908Z,61
2022-08-17T15:53:10.291Z,60
2022-08-17T15:58:10.723Z,60
2022-08-17T16:03:44.223Z,60
2022-08-17T16:08:10.593Z,60
2022-08-17T16:13:17.772Z,61
2022-08-17T16:18:10.484Z,61
2022-08-17T16:23:10.678Z,60
2022-08-17T16:28:10.875Z,60
2022-08-17T16:33:10.316Z,60
2022-08-17T16:38:10.198Z,60
2022-08-17T16:43:10.762Z,61
2022-08-17T16:48:10.119Z,61
2022-08-17T16:53:10.297Z,61
2022-08-17T16:58:10.440Z,61
2022-08-17T17:03:19.595Z,62
2022-08-17T17:08:11.015Z,62
2022-08-17T17:13:10.217Z,63
2022-08-17T17:18:10.444Z,63
2022-08-17T17:23:11.251Z,64
2022-08-17T17:28:10.746Z,64
2022-08-17T17:33:10.928Z,65
2022-08-17T17:38:11.175Z,65
2022-08-17T17:43:35.232Z,66
2022-08-17T17:48:10.146Z,66
2022-08-17T17:53:10.298Z,66
2022-08-17T17:58:10.710Z,66
2022-08-17T18:03:10.859Z,67
2022-08-17T18:08:11.236Z,67
2022-08-17T18:13:15.346Z,68
2022-08-17T18:18:10.324Z,68
2022-08-17T18:23:10.468Z,69
2022-08-17T18:28:10.537Z,69
2022-08-17T18:33:10.609Z,69
2022-08-17T18:38:10.462Z,69
2022-08-17T18:43:10.719Z,70
2022-08-17T18:48:10.793Z,70
2022-08-17T18:53:10.606Z,70
2022-08-17T18:58:11.110Z,70
2022-08-17T19:03:12.176Z,71
2022-08-17T19:08:10.767Z,71
2022-08-17T19:13:12.737Z,74
2022-08-17T19:18:15.158Z,74
2022-08-17T19:23:11.187Z,76
2022-08-17T19:28:15.403Z,76
2022-08-17T19:33:10.160Z,78
2022-08-17T19:38:12.689Z,78
2022-08-17T19:43:10.699Z,78
2022-08-17T19:48:11.012Z,78
2022-08-17T19:53:10.213Z,81
2022-08-17T19:58:10.309Z,81
2022-08-17T20:03:16.184Z,82
2022-08-17T20:08:10.300Z,82
2022-08-17T20:13:10.370Z,84
2022-08-17T20:18:10.423Z,84
2022-08-17T20:23:10.650Z,85
2022-08-17T20:28:10.816Z,85
2022-08-17T20:33:13.122Z,87
2022-08-17T20:38:10.513Z,87
2022-08-17T20:43:10.761Z,88
2022-08-17T20:48:37.278Z,88
2022-08-17T20:53:10.461Z,88
2022-08-17T20:58:10.500Z,88
2022-08-17T21:03:10.284Z,89
2022-08-17T21:08:16.341Z,89
2022-08-17T21:13:10.681Z,90
2022-08-17T21:18:10.228Z,90
2022-08-17T21:23:10.365Z,90
2022-08-17T21:28:10.696Z,90
2022-08-17T21:33:10.699Z,90
2022-08-17T21:38:10.562Z,90
2022-08-17T21:43:11.167Z,91
2022-08-17T21:48:10.375Z,91
2022-08-17T21:53:10.814Z,91
2022-08-17T21:58:14.086Z,91
2022-08-17T22:03:10.349Z,92
2022-08-17T22:08:16.808Z,92
2022-08-17T22:13:16.593Z,92
2022-08-17T22:18:10.850Z,92
2022-08-17T22:23:11.211Z,92
2022-08-17T22:28:10.294Z,92
2022-08-17T22:33:10.593Z,92
2022-08-17T22:38:11.181Z,92
2022-08-17T22:43:10.383Z,93
2022-08-17T22:48:10.597Z,93
2022-08-17T22:53:10.805Z,93
2022-08-17T22:58:10.990Z,93
2022-08-17T23:03:11.125Z,93
2022-08-17T23:08:10.429Z,93
2022-08-17T23:13:11.782Z,93
2022-08-17T23:18:10.869Z,93
2022-08-17T23:23:11.058Z,93
2022-08-17T23:28:11.181Z,93
2022-08-17T23:33:10.363Z,94
2022-08-17T23:38:10.746Z,94
2022-08-17T23:43:17.639Z,94
2022-08-17T23:48:10.498Z,94
2022-08-17T23:53:11.215Z,95
2022-08-17T23:58:10.529Z,95
